createdAt,value
2023-03-07T00:01:39.736Z,29.70
2023-03-07T00:04:12.769Z,33.50
2023-03-07T00:06:39.827Z,31.15
2023-03-07T00:09:06.829Z,28.58
2023-03-07T00:11:40.693Z,26.98
2023-03-07T00:14:08.270Z,27.83
2023-03-07T00:16:41.735Z,28.40
2023-03-07T00:19:21.704Z,26.13
2023-03-07T00:21:48.632Z,27.67
2023-03-07T00:24:21.674Z,26.27
2023-03-07T00:29:49.588Z,26.15
2023-03-07T00:32:23.723Z,27.20
2023-03-07T00:34:50.742Z,26.08
2023-03-07T00:37:23.674Z,26.88
2023-03-07T00:39:56.631Z,29.75
2023-03-07T00:42:30.733Z,27.38
2023-03-07T00:44:57.695Z,29.02
2023-03-07T00:47:30.744Z,24.88
2023-03-07T00:49:57.684Z,25.52
2023-03-07T00:52:30.652Z,29.85
2023-03-07T00:54:57.584Z,21.90
2023-03-07T00:57:30.692Z,25.15
2023-03-07T00:59:57.610Z,25.17
2023-03-07T01:02:30.758Z,25.75
2023-03-07T01:04:57.651Z,24.98
2023-03-07T01:07:24.595Z,27.42
2023-03-07T01:09:58.682Z,28.23
2023-03-07T01:12:31.693Z,22.55
2023-03-07T01:14:58.633Z,22.85
2023-03-07T01:17:32.722Z,22.80
2023-03-07T01:20:00.146Z,24.48
2023-03-07T01:22:27.117Z,22.45
2023-03-07T01:25:00.780Z,24.65
2023-03-07T01:27:27.769Z,23.75
2023-03-07T01:30:01.714Z,29.27
2023-03-07T01:32:28.685Z,28.02
2023-03-07T01:35:01.713Z,26.00
2023-03-07T01:37:28.729Z,26.95
2023-03-07T01:40:01.733Z,27.15
2023-03-07T01:42:37.733Z,26.88
2023-03-07T01:45:33.647Z,26.15
2023-03-07T01:48:06.804Z,29.83
2023-03-07T01:50:33.755Z,28.88
2023-03-07T01:53:07.781Z,29.08
2023-03-07T01:55:35.143Z,27.88
2023-03-07T01:58:15.700Z,24.20
2023-03-07T02:00:48.699Z,26.35
2023-03-07T02:03:32.755Z,26.10
2023-03-07T02:06:12.140Z,22.83
2023-03-07T02:08:39.392Z,26.42
2023-03-07T02:11:12.676Z,28.25
2023-03-07T02:13:39.660Z,26.85
2023-03-07T02:16:13.822Z,24.38
2023-03-07T02:18:45.676Z,23.73
2023-03-07T02:21:24.778Z,27.35
2023-03-07T02:24:12.823Z,22.20
2023-03-07T02:26:57.721Z,27.25
2023-03-07T02:29:35.884Z,24.45
2023-03-07T02:32:09.808Z,24.95
2023-03-07T02:34:36.888Z,29.17
2023-03-07T02:37:17.733Z,27.85
2023-03-07T02:39:52.760Z,25.33
2023-03-07T02:42:29.689Z,27.73
2023-03-07T02:45:07.752Z,30.42
2023-03-07T02:47:34.717Z,33.95
2023-03-07T02:50:08.701Z,33.45
2023-03-07T02:52:35.682Z,30.08
2023-03-07T02:55:08.776Z,32.65
2023-03-07T02:57:35.784Z,36.95
2023-03-07T03:00:10.746Z,30.92
2023-03-07T03:02:43.846Z,27.92
2023-03-07T03:05:17.724Z,28.65
2023-03-07T03:07:50.822Z,29.63
2023-03-07T03:10:17.913Z,27.00
2023-03-07T03:12:51.824Z,27.88
2023-03-07T03:15:18.771Z,26.35
2023-03-07T03:17:51.774Z,28.05
2023-03-07T03:20:25.800Z,29.63
2023-03-07T03:22:52.986Z,30.20
2023-03-07T03:25:26.739Z,26.10
2023-03-07T03:27:59.777Z,27.95
2023-03-07T03:30:27.428Z,28.83
2023-03-07T03:33:00.836Z,22.65
2023-03-07T03:35:27.944Z,28.33
2023-03-07T03:38:01.895Z,27.23
2023-03-07T03:40:28.827Z,28.50
2023-03-07T03:42:55.739Z,25.95
2023-03-07T03:45:28.754Z,27.45
2023-03-07T03:48:01.790Z,34.28
2023-03-07T03:50:28.625Z,34.72
2023-03-07T03:53:01.858Z,25.02
2023-03-07T03:55:28.850Z,22.98
2023-03-07T03:57:55.860Z,24.20
2023-03-07T04:00:29.797Z,23.60
2023-03-07T04:02:57.102Z,25.17
2023-03-07T04:05:24.160Z,24.20
2023-03-07T04:07:57.799Z,22.92
2023-03-07T04:10:24.705Z,20.73
2023-03-07T04:12:57.791Z,24.73
2023-03-07T04:15:24.777Z,25.60
2023-03-07T04:17:58.791Z,24.63
2023-03-07T04:20:25.738Z,24.77
2023-03-07T04:22:52.783Z,23.75
2023-03-07T04:25:25.783Z,23.27
2023-03-07T04:27:52.769Z,23.13
2023-03-07T04:30:25.815Z,21.00
2023-03-07T04:32:52.945Z,20.70
2023-03-07T04:35:26.791Z,25.45
2023-03-07T04:37:53.821Z,28.20
2023-03-07T04:40:27.778Z,22.98
2023-03-07T04:42:54.811Z,23.30
2023-03-07T04:45:28.774Z,25.80
2023-03-07T04:47:55.817Z,25.63
2023-03-07T04:50:28.808Z,24.60
2023-03-07T04:52:55.717Z,25.98
2023-03-07T04:55:22.725Z,23.88
2023-03-07T04:57:55.797Z,22.17
2023-03-07T05:00:22.737Z,24.42
2023-03-07T05:02:55.828Z,25.25
2023-03-07T05:05:22.881Z,22.45
2023-03-07T05:07:55.823Z,23.60
2023-03-07T05:10:22.773Z,22.90
2023-03-07T05:12:55.842Z,29.83
2023-03-07T05:15:28.880Z,35.08
2023-03-07T05:17:55.841Z,32.60
2023-03-07T05:20:28.824Z,29.40
2023-03-07T05:23:03.860Z,25.92
2023-03-07T05:25:30.749Z,24.13
2023-03-07T05:27:57.675Z,29.50
2023-03-07T05:30:30.827Z,29.73
2023-03-07T05:32:57.730Z,27.10
2023-03-07T05:35:30.855Z,26.23
2023-03-07T05:37:57.767Z,25.75
2023-03-07T05:40:30.844Z,24.85
2023-03-07T05:42:57.718Z,27.45
2023-03-07T05:45:30.829Z,23.95
2023-03-07T05:47:57.748Z,23.58
2023-03-07T05:50:30.795Z,27.05
2023-03-07T05:52:57.716Z,23.60
2023-03-07T05:55:24.617Z,19.88
2023-03-07T05:57:57.839Z,18.67
2023-03-07T06:00:31.881Z,21.02
2023-03-07T06:03:00.985Z,21.60
2023-03-07T06:05:34.806Z,25.60
2023-03-07T06:08:07.845Z,21.55
2023-03-07T06:10:34.751Z,20.23
2023-03-07T06:13:01.871Z,21.05
2023-03-07T06:15:34.844Z,19.75
2023-03-07T06:18:01.765Z,22.17
2023-03-07T06:20:34.869Z,19.63
2023-03-07T06:23:14.873Z,21.13
2023-03-07T06:25:41.789Z,24.48
2023-03-07T06:28:14.834Z,26.23
2023-03-07T06:30:41.803Z,24.02
2023-03-07T06:33:14.913Z,25.10
2023-03-07T06:35:45.257Z,23.05
2023-03-07T06:38:20.838Z,21.00
2023-03-07T06:41:02.857Z,22.27
2023-03-07T06:43:35.905Z,18.63
2023-03-07T06:46:03.412Z,20.02
2023-03-07T06:48:36.859Z,23.85
2023-03-07T06:51:15.063Z,21.73
2023-03-07T06:53:42.063Z,21.80
2023-03-07T06:56:16.003Z,22.13
2023-03-07T06:58:49.884Z,23.33
2023-03-07T07:01:24.841Z,20.63
2023-03-07T07:03:52.150Z,22.42
2023-03-07T07:06:25.839Z,21.50
2023-03-07T07:08:56.698Z,21.00
2023-03-07T07:11:30.900Z,18.75
2023-03-07T07:13:57.912Z,22.42
2023-03-07T07:16:30.864Z,22.20
2023-03-07T07:19:03.823Z,22.27
2023-03-07T07:21:30.762Z,24.98
2023-03-07T07:24:04.872Z,23.65
2023-03-07T07:26:31.823Z,23.77
2023-03-07T07:29:04.876Z,25.35
2023-03-07T07:31:31.853Z,23.05
2023-03-07T07:33:58.757Z,24.05
2023-03-07T07:36:32.890Z,20.85
2023-03-07T07:39:09.884Z,23.50
2023-03-07T07:41:36.836Z,24.20
2023-03-07T07:44:09.892Z,20.80
2023-03-07T07:46:42.924Z,24.88
2023-03-07T07:49:09.855Z,21.60
2023-03-07T07:51:42.948Z,20.90
2023-03-07T07:54:09.894Z,20.30
2023-03-07T07:56:42.897Z,19.08
2023-03-07T07:59:09.892Z,24.60
2023-03-07T08:01:42.927Z,24.73
2023-03-07T08:04:15.930Z,33.15
2023-03-07T08:06:42.986Z,31.83
2023-03-07T08:09:16.855Z,29.65
2023-03-07T08:11:43.748Z,36.05
2023-03-07T08:14:16.898Z,33.78
2023-03-07T08:16:43.839Z,25.85
2023-03-07T08:19:16.892Z,34.08
2023-03-07T08:21:43.796Z,34.55
2023-03-07T08:24:17.034Z,39.53
2023-03-07T08:26:47.090Z,32.88
2023-03-07T08:29:20.948Z,26.00
2023-03-07T08:31:53.943Z,24.08
2023-03-07T08:34:21.126Z,20.27
2023-03-07T08:36:48.056Z,19.83
2023-03-07T08:39:21.868Z,17.52
2023-03-07T08:41:48.764Z,25.85
2023-03-07T08:44:21.923Z,24.02
2023-03-07T08:46:48.835Z,20.80
2023-03-07T08:49:21.980Z,24.13
2023-03-07T08:51:55.891Z,25.17
2023-03-07T08:54:22.756Z,28.50
2023-03-07T08:56:49.634Z,22.10
2023-03-07T08:59:22.931Z,24.33
2023-03-07T09:01:49.909Z,18.90
2023-03-07T09:04:23.001Z,19.20
2023-03-07T09:06:50.088Z,14.75
2023-03-07T09:09:17.104Z,16.40
2023-03-07T09:11:50.933Z,17.65
2023-03-07T09:14:17.879Z,14.32
2023-03-07T09:16:44.820Z,17.65
2023-03-07T09:19:17.960Z,12.98
2023-03-07T09:21:44.890Z,20.40
2023-03-07T09:24:11.839Z,17.45
2023-03-07T09:26:44.931Z,16.60
2023-03-07T09:29:11.839Z,20.10
2023-03-07T09:31:45.046Z,20.10
2023-03-07T09:34:12.089Z,20.17
2023-03-07T09:36:45.926Z,18.40
2023-03-07T09:39:12.859Z,19.35
2023-03-07T09:42:15.992Z,18.65
2023-03-07T09:45:10.943Z,18.80
2023-03-07T09:47:59.841Z,22.23
2023-03-07T09:51:11.503Z,21.98
2023-03-07T09:54:05.013Z,21.55
2023-03-07T09:56:51.960Z,22.02
2023-03-07T09:59:41.043Z,20.98
2023-03-07T10:02:32.979Z,18.90
2023-03-07T10:05:11.009Z,20.25
2023-03-07T10:07:44.998Z,21.88
2023-03-07T10:10:41.665Z,23.05
2023-03-07T10:13:51.994Z,18.15
2023-03-07T10:16:46.502Z,20.73
2023-03-07T10:19:48.970Z,19.98
2023-03-07T10:23:04.327Z,16.83
2023-03-07T10:25:54.046Z,20.83
2023-03-07T10:28:32.135Z,22.30
2023-03-07T10:31:20.262Z,19.25
2023-03-07T10:33:55.121Z,20.10
2023-03-07T10:37:09.311Z,21.25
2023-03-07T10:39:59.970Z,20.13
2023-03-07T10:42:30.866Z,20.70
2023-03-07T10:45:05.017Z,22.52
2023-03-07T10:47:39.076Z,23.30
2023-03-07T10:50:55.003Z,22.30
2023-03-07T10:53:33.643Z,19.58
2023-03-07T10:56:20.111Z,23.70
2023-03-07T10:59:07.880Z,24.08
2023-03-07T11:01:41.993Z,24.95
2023-03-07T11:04:28.019Z,26.88
2023-03-07T11:06:59.727Z,25.30
2023-03-07T11:09:44.024Z,20.83
2023-03-07T11:12:13.456Z,23.65
2023-03-07T11:15:16.038Z,24.85
2023-03-07T11:17:52.084Z,27.58
2023-03-07T11:20:25.700Z,22.50
2023-03-07T11:23:28.023Z,19.83
2023-03-07T11:25:56.342Z,24.30
2023-03-07T11:28:41.043Z,23.88
2023-03-07T11:31:31.969Z,25.98
2023-03-07T11:34:29.009Z,22.95
2023-03-07T11:37:02.445Z,23.33
2023-03-07T11:39:51.048Z,24.95
2023-03-07T11:42:24.060Z,23.10
2023-03-07T11:45:01.005Z,19.45
2023-03-07T11:47:46.115Z,23.65
2023-03-07T11:50:25.118Z,19.92
2023-03-07T11:53:27.040Z,24.13
2023-03-07T11:56:29.210Z,22.63
2023-03-07T11:59:16.095Z,19.95
2023-03-07T12:01:58.588Z,21.15
2023-03-07T12:05:31.131Z,24.20
2023-03-07T12:08:23.139Z,25.10
2023-03-07T12:11:51.033Z,20.50
2023-03-07T12:14:48.165Z,19.23
2023-03-07T12:17:36.120Z,23.17
2023-03-07T12:20:23.932Z,23.38
2023-03-07T12:23:12.124Z,21.13
2023-03-07T12:25:54.050Z,21.60
2023-03-07T12:28:52.209Z,20.40
2023-03-07T12:31:35.665Z,24.83
2023-03-07T12:34:23.033Z,22.45
2023-03-07T12:36:56.322Z,22.40
2023-03-07T12:39:59.160Z,18.95
2023-03-07T12:43:23.117Z,20.85
2023-03-07T12:46:30.156Z,19.50
2023-03-07T12:49:56.146Z,21.90
2023-03-07T12:52:43.083Z,19.00
2023-03-07T12:55:34.057Z,20.02
2023-03-07T12:58:40.133Z,23.38
2023-03-07T13:01:35.158Z,24.60
2023-03-07T13:04:34.162Z,19.13
2023-03-07T13:07:30.073Z,22.70
2023-03-07T13:09:59.288Z,22.10
2023-03-07T13:12:39.066Z,22.35
2023-03-07T13:15:25.107Z,23.65
2023-03-07T13:17:52.014Z,26.20
2023-03-07T13:20:34.086Z,23.50
2023-03-07T13:23:12.703Z,19.60
2023-03-07T13:25:57.070Z,16.90
2023-03-07T13:28:36.491Z,18.92
2023-03-07T13:31:22.100Z,18.50
2023-03-07T13:33:55.087Z,21.35
2023-03-07T13:36:36.957Z,20.75
2023-03-07T13:39:11.114Z,13.77
2023-03-07T13:41:49.143Z,15.25
2023-03-07T13:44:47.155Z,16.77
2023-03-07T13:47:49.201Z,13.15
2023-03-07T13:50:34.601Z,15.85
2023-03-07T13:53:25.086Z,14.45
2023-03-07T13:56:16.147Z,14.07
2023-03-07T13:59:21.136Z,15.07
2023-03-07T14:02:06.789Z,13.45
2023-03-07T14:04:55.077Z,15.10
2023-03-07T14:07:34.258Z,15.25
2023-03-07T14:10:33.108Z,12.23
2023-03-07T14:13:51.140Z,12.70
2023-03-07T14:16:36.255Z,14.77
2023-03-07T14:20:05.142Z,16.50
2023-03-07T14:22:51.143Z,18.13
2023-03-07T14:25:45.179Z,16.55
2023-03-07T14:28:26.894Z,17.10
2023-03-07T14:31:06.220Z,15.93
2023-03-07T14:33:38.534Z,15.98
2023-03-07T14:36:34.272Z,18.98
2023-03-07T14:39:01.230Z,18.83
2023-03-07T14:41:59.140Z,14.23
2023-03-07T14:44:45.466Z,12.98
2023-03-07T14:47:42.197Z,12.60
2023-03-07T14:50:16.387Z,16.23
2023-03-07T14:52:50.157Z,16.75
2023-03-07T14:55:20.052Z,18.83
2023-03-07T14:57:55.116Z,18.10
2023-03-07T15:00:24.395Z,19.48
2023-03-07T15:03:03.194Z,21.50
2023-03-07T15:05:33.054Z,15.02
2023-03-07T15:07:59.998Z,18.55
2023-03-07T15:10:49.156Z,19.42
2023-03-07T15:14:14.998Z,24.33
2023-03-07T15:17:00.233Z,16.73
2023-03-07T15:19:48.083Z,19.70
2023-03-07T15:22:40.243Z,15.52
2023-03-07T15:25:27.169Z,15.55
2023-03-07T15:28:07.149Z,18.25
2023-03-07T15:30:43.143Z,16.00
2023-03-07T15:33:26.246Z,15.45
2023-03-07T15:36:25.296Z,18.17
2023-03-07T15:38:59.227Z,15.75
2023-03-07T15:41:28.948Z,15.65
2023-03-07T15:44:17.189Z,17.50
2023-03-07T15:46:52.688Z,13.85
2023-03-07T15:49:56.204Z,16.25
2023-03-07T15:52:39.213Z,16.83
2023-03-07T15:55:16.280Z,17.95
2023-03-07T15:58:01.356Z,17.05
2023-03-07T16:00:35.888Z,22.80
2023-03-07T16:03:35.338Z,16.48
2023-03-07T16:06:02.463Z,20.00
2023-03-07T16:08:36.188Z,21.90
2023-03-07T16:11:05.278Z,17.15
2023-03-07T16:13:49.251Z,20.45
2023-03-07T16:16:25.066Z,21.60
2023-03-07T16:18:58.224Z,21.92
2023-03-07T16:21:25.315Z,25.25
2023-03-07T16:23:52.353Z,21.15
2023-03-07T16:26:30.201Z,17.25
2023-03-07T16:29:03.163Z,19.88
2023-03-07T16:31:30.324Z,22.55
2023-03-07T16:34:04.189Z,22.27
2023-03-07T16:36:37.237Z,23.40
2023-03-07T16:39:10.182Z,22.20
2023-03-07T16:41:45.750Z,17.63
2023-03-07T16:44:24.230Z,18.02
2023-03-07T16:47:15.170Z,18.10
2023-03-07T16:49:48.231Z,20.00
2023-03-07T16:52:15.217Z,17.40
2023-03-07T16:54:48.200Z,18.95
2023-03-07T16:57:22.196Z,24.90
2023-03-07T16:59:55.232Z,26.02
2023-03-07T17:02:22.340Z,22.45
2023-03-07T17:04:56.238Z,23.25
2023-03-07T17:07:23.700Z,21.65
2023-03-07T17:09:57.231Z,22.30
2023-03-07T17:12:24.404Z,21.13
2023-03-07T17:14:58.203Z,28.67
2023-03-07T17:17:31.358Z,25.08
2023-03-07T17:20:05.229Z,22.25
2023-03-07T17:22:32.518Z,21.27
2023-03-07T17:24:59.508Z,21.02
2023-03-07T17:27:33.193Z,21.75
2023-03-07T17:30:00.158Z,19.23
2023-03-07T17:32:33.308Z,23.77
2023-03-07T17:35:00.311Z,17.23
2023-03-07T17:37:27.286Z,26.05
2023-03-07T17:40:01.309Z,26.55
2023-03-07T17:42:28.328Z,26.95
2023-03-07T17:45:02.317Z,37.78
2023-03-07T17:47:29.274Z,40.95
2023-03-07T17:49:56.189Z,33.78
2023-03-07T17:52:29.281Z,25.55
2023-03-07T17:55:02.324Z,23.13
2023-03-07T17:57:29.344Z,27.45
2023-03-07T18:00:11.277Z,23.48
2023-03-07T18:02:38.295Z,19.45
2023-03-07T18:05:06.581Z,19.77
2023-03-07T18:07:40.261Z,22.30
2023-03-07T18:10:09.018Z,24.77
2023-03-07T18:12:43.341Z,23.17
2023-03-07T18:15:14.938Z,25.38
2023-03-07T18:17:49.297Z,22.08
2023-03-07T18:20:18.555Z,24.13
2023-03-07T18:22:56.719Z,23.80
2023-03-07T18:25:25.538Z,21.70
2023-03-07T18:27:59.315Z,24.77
2023-03-07T18:30:26.270Z,25.38
2023-03-07T18:33:08.282Z,28.90
2023-03-07T18:35:44.409Z,22.27
2023-03-07T18:38:11.491Z,23.23
2023-03-07T18:40:45.250Z,21.10
2023-03-07T18:43:19.295Z,22.73
2023-03-07T18:45:53.000Z,22.17
2023-03-07T18:48:26.450Z,23.42
2023-03-07T18:51:01.009Z,22.85
2023-03-07T18:53:34.305Z,22.63
2023-03-07T18:56:15.314Z,23.75
2023-03-07T18:58:49.262Z,19.55
2023-03-07T19:01:17.910Z,25.52
2023-03-07T19:03:52.288Z,51.25
2023-03-07T19:06:20.156Z,44.55
2023-03-07T19:08:53.341Z,43.95
2023-03-07T19:11:27.259Z,40.85
2023-03-07T19:13:54.283Z,30.58
2023-03-07T19:16:30.381Z,17.45
2023-03-07T19:18:57.700Z,17.00
2023-03-07T19:21:33.323Z,16.80
2023-03-07T19:24:07.335Z,15.32
2023-03-07T19:26:34.267Z,14.65
2023-03-07T19:29:01.158Z,12.65
2023-03-07T19:31:36.325Z,15.98
2023-03-07T19:34:03.703Z,16.63
2023-03-07T19:36:30.804Z,17.00
2023-03-07T19:39:04.327Z,13.63
2023-03-07T19:41:32.285Z,15.93
2023-03-07T19:44:00.375Z,12.38
2023-03-07T19:46:34.318Z,17.48
2023-03-07T19:49:08.366Z,12.88
2023-03-07T19:51:42.338Z,14.90
2023-03-07T19:54:13.191Z,18.05
2023-03-07T19:56:46.308Z,13.80
2023-03-07T19:59:20.896Z,14.60
2023-03-07T20:01:54.349Z,16.60
2023-03-07T20:04:27.346Z,11.48
2023-03-07T20:06:54.276Z,15.45
2023-03-07T20:09:27.362Z,16.00
2023-03-07T20:11:54.486Z,15.25
2023-03-07T20:14:28.311Z,15.50
2023-03-07T20:16:55.325Z,14.98
2023-03-07T20:19:28.320Z,20.58
2023-03-07T20:22:01.374Z,19.40
2023-03-07T20:24:28.369Z,19.08
2023-03-07T20:27:02.376Z,14.32
2023-03-07T20:29:36.384Z,16.13
2023-03-07T20:32:03.482Z,27.13
2023-03-07T20:34:30.592Z,22.05
2023-03-07T20:37:04.356Z,20.52
2023-03-07T20:39:38.316Z,20.10
2023-03-07T20:42:12.327Z,20.92
2023-03-07T20:44:46.369Z,18.33
2023-03-07T20:47:13.336Z,16.10
2023-03-07T20:49:46.412Z,24.25
2023-03-07T20:52:13.371Z,16.88
2023-03-07T20:54:47.375Z,16.02
2023-03-07T20:57:14.288Z,18.02
2023-03-07T20:59:47.472Z,17.50
2023-03-07T21:02:14.499Z,22.05
2023-03-07T21:04:41.509Z,20.52
2023-03-07T21:07:15.382Z,19.65
2023-03-07T21:09:42.368Z,20.40
2023-03-07T21:12:16.410Z,19.17
2023-03-07T21:14:43.391Z,21.88
2023-03-07T21:17:16.415Z,22.75
2023-03-07T21:19:43.434Z,21.83
2023-03-07T21:22:17.457Z,19.08
2023-03-07T21:24:51.366Z,17.58
2023-03-07T21:27:25.478Z,22.48
2023-03-07T21:29:52.464Z,18.83
2023-03-07T21:32:26.497Z,19.90
2023-03-07T21:35:00.433Z,23.42
2023-03-07T21:37:27.440Z,23.17
2023-03-07T21:39:54.333Z,22.85
2023-03-07T21:42:27.430Z,24.13
2023-03-07T21:44:54.362Z,25.00
2023-03-07T21:47:27.417Z,24.13
2023-03-07T21:49:54.414Z,24.48
2023-03-07T21:52:28.361Z,23.95
2023-03-07T21:54:55.415Z,22.17
2023-03-07T21:57:28.378Z,18.63
2023-03-07T22:00:01.392Z,24.27
2023-03-07T22:02:28.306Z,24.77
2023-03-07T22:05:01.452Z,25.30
2023-03-07T22:07:28.466Z,26.70
2023-03-07T22:10:02.425Z,26.33
2023-03-07T22:12:29.416Z,25.77
2023-03-07T22:14:56.419Z,25.42
2023-03-07T22:17:30.464Z,24.85
2023-03-07T22:19:57.458Z,36.22
2023-03-07T22:22:31.440Z,35.45
2023-03-07T22:24:58.434Z,44.10
2023-03-07T22:27:32.377Z,35.47
2023-03-07T22:29:59.370Z,45.55
2023-03-07T22:32:26.374Z,44.90
2023-03-07T22:35:00.419Z,42.92
2023-03-07T22:37:27.644Z,34.17
2023-03-07T22:40:01.411Z,33.28
2023-03-07T22:42:28.416Z,33.85
2023-03-07T22:44:55.494Z,26.98
2023-03-07T22:47:29.383Z,26.05
2023-03-07T22:49:56.441Z,29.70
2023-03-07T22:52:29.558Z,30.42
2023-03-07T22:54:56.468Z,31.92
2023-03-07T22:57:30.411Z,32.90
2023-03-07T22:59:57.393Z,30.90
2023-03-07T23:02:30.401Z,35.28
2023-03-07T23:04:57.329Z,30.15
2023-03-07T23:07:30.443Z,27.67
2023-03-07T23:09:57.385Z,37.33
2023-03-07T23:12:24.339Z,38.25
2023-03-07T23:14:57.491Z,39.63
2023-03-07T23:17:31.451Z,36.28
2023-03-07T23:19:58.386Z,36.17
2023-03-07T23:22:31.416Z,27.30
2023-03-07T23:25:04.434Z,26.42
2023-03-07T23:27:38.466Z,24.90
2023-03-07T23:30:09.540Z,21.20
2023-03-07T23:32:43.453Z,19.30
2023-03-07T23:35:10.403Z,23.58
2023-03-07T23:37:43.421Z,20.00
2023-03-07T23:40:11.425Z,20.85
2023-03-07T23:42:44.427Z,20.05
2023-03-07T23:45:11.579Z,23.58
2023-03-07T23:47:45.428Z,27.80
2023-03-07T23:50:12.402Z,27.08
2023-03-07T23:52:45.401Z,26.50
2023-03-07T23:55:18.439Z,32.00
2023-03-07T23:57:46.566Z,24.75
